sensor_id;sensor_type;location;lat;lon;timestamp;P1;durP1;ratioP1;P2;durP2;ratioP2
52586;SDS011;38480;52.724;6.436;2023-03-16T00:01:05;9.60;;;2.70;;
52586;SDS011;38480;52.724;6.436;2023-03-16T00:03:32;5.50;;;2.63;;
52586;SDS011;38480;52.724;6.436;2023-03-16T00:05:58;9.73;;;2.40;;
52586;SDS011;38480;52.724;6.436;2023-03-16T00:08:24;5.77;;;2.47;;
52586;SDS011;38480;52.724;6.436;2023-03-16T00:10:50;6.40;;;2.27;;
52586;SDS011;38480;52.724;6.436;2023-03-16T00:13:18;12.20;;;3.33;;
52586;SDS011;38480;52.724;6.436;2023-03-16T00:15:51;7.53;;;2.37;;
52586;SDS011;38480;52.724;6.436;2023-03-16T00:18:18;10.07;;;2.43;;
52586;SDS011;38480;52.724;6.436;2023-03-16T00:20:44;6.73;;;2.47;;
52586;SDS011;38480;52.724;6.436;2023-03-16T00:23:10;7.33;;;2.40;;
52586;SDS011;38480;52.724;6.436;2023-03-16T00:25:36;7.57;;;2.40;;
52586;SDS011;38480;52.724;6.436;2023-03-16T00:28:02;10.87;;;2.70;;
52586;SDS011;38480;52.724;6.436;2023-03-16T00:30:30;11.37;;;3.20;;
52586;SDS011;38480;52.724;6.436;2023-03-16T00:32:56;11.17;;;2.67;;
52586;SDS011;38480;52.724;6.436;2023-03-16T00:35:23;8.53;;;3.07;;
52586;SDS011;38480;52.724;6.436;2023-03-16T00:37:49;13.97;;;2.73;;
52586;SDS011;38480;52.724;6.436;2023-03-16T00:40:15;5.90;;;2.90;;
52586;SDS011;38480;52.724;6.436;2023-03-16T00:42:41;8.00;;;3.07;;
52586;SDS011;38480;52.724;6.436;2023-03-16T00:45:08;6.73;;;2.73;;
52586;SDS011;38480;52.724;6.436;2023-03-16T00:47:34;9.63;;;3.23;;
52586;SDS011;38480;52.724;6.436;2023-03-16T00:50:00;7.97;;;3.07;;
52586;SDS011;38480;52.724;6.436;2023-03-16T00:52:27;9.17;;;3.47;;
52586;SDS011;38480;52.724;6.436;2023-03-16T00:54:53;10.07;;;3.07;;
52586;SDS011;38480;52.724;6.436;2023-03-16T00:57:20;9.40;;;3.17;;
52586;SDS011;38480;52.724;6.436;2023-03-16T00:59:48;6.80;;;3.07;;
52586;SDS011;38480;52.724;6.436;2023-03-16T01:02:15;12.40;;;4.57;;
52586;SDS011;38480;52.724;6.436;2023-03-16T01:04:43;8.93;;;3.23;;
52586;SDS011;38480;52.724;6.436;2023-03-16T01:07:10;7.40;;;3.40;;
52586;SDS011;38480;52.724;6.436;2023-03-16T01:09:37;7.03;;;3.10;;
52586;SDS011;38480;52.724;6.436;2023-03-16T01:12:03;6.70;;;2.83;;
52586;SDS011;38480;52.724;6.436;2023-03-16T01:14:30;9.77;;;3.70;;
52586;SDS011;38480;52.724;6.436;2023-03-16T01:16:56;5.80;;;3.23;;
52586;SDS011;38480;52.724;6.436;2023-03-16T01:19:22;7.67;;;2.80;;
52586;SDS011;38480;52.724;6.436;2023-03-16T01:21:48;10.53;;;3.63;;
52586;SDS011;38480;52.724;6.436;2023-03-16T01:24:14;9.80;;;3.63;;
52586;SDS011;38480;52.724;6.436;2023-03-16T01:26:40;11.07;;;3.83;;
52586;SDS011;38480;52.724;6.436;2023-03-16T01:29:06;11.43;;;4.00;;
52586;SDS011;38480;52.724;6.436;2023-03-16T01:31:33;6.57;;;3.20;;
52586;SDS011;38480;52.724;6.436;2023-03-16T01:33:59;13.60;;;3.50;;
52586;SDS011;38480;52.724;6.436;2023-03-16T01:36:26;9.03;;;3.30;;
52586;SDS011;38480;52.724;6.436;2023-03-16T01:38:52;9.07;;;3.43;;
52586;SDS011;38480;52.724;6.436;2023-03-16T01:41:18;8.43;;;3.50;;
52586;SDS011;38480;52.724;6.436;2023-03-16T01:43:44;11.47;;;3.80;;
52586;SDS011;38480;52.724;6.436;2023-03-16T01:46:18;8.37;;;3.93;;
52586;SDS011;38480;52.724;6.436;2023-03-16T01:48:55;10.73;;;3.90;;
52586;SDS011;38480;52.724;6.436;2023-03-16T01:51:30;8.10;;;4.03;;
52586;SDS011;38480;52.724;6.436;2023-03-16T01:54:00;9.87;;;3.83;;
52586;SDS011;38480;52.724;6.436;2023-03-16T01:56:30;11.47;;;4.30;;
52586;SDS011;38480;52.724;6.436;2023-03-16T01:58:58;8.53;;;3.40;;
52586;SDS011;38480;52.724;6.436;2023-03-16T02:01:26;8.87;;;3.60;;
52586;SDS011;38480;52.724;6.436;2023-03-16T02:04:02;7.53;;;3.77;;
52586;SDS011;38480;52.724;6.436;2023-03-16T02:06:30;6.13;;;3.27;;
52586;SDS011;38480;52.724;6.436;2023-03-16T02:08:56;9.03;;;4.03;;
52586;SDS011;38480;52.724;6.436;2023-03-16T02:11:22;8.17;;;4.43;;
52586;SDS011;38480;52.724;6.436;2023-03-16T02:13:48;13.40;;;4.50;;
52586;SDS011;38480;52.724;6.436;2023-03-16T02:16:15;8.10;;;4.70;;
52586;SDS011;38480;52.724;6.436;2023-03-16T02:18:46;9.23;;;4.00;;
52586;SDS011;38480;52.724;6.436;2023-03-16T02:23:58;12.00;;;4.10;;
52586;SDS011;38480;52.724;6.436;2023-03-16T02:29:04;8.63;;;3.73;;
52586;SDS011;38480;52.724;6.436;2023-03-16T02:31:31;10.90;;;4.80;;
52586;SDS011;38480;52.724;6.436;2023-03-16T02:33:58;8.70;;;3.70;;
52586;SDS011;38480;52.724;6.436;2023-03-16T02:36:24;8.20;;;4.00;;
52586;SDS011;38480;52.724;6.436;2023-03-16T02:38:50;9.37;;;3.90;;
52586;SDS011;38480;52.724;6.436;2023-03-16T02:41:17;10.27;;;3.73;;
52586;SDS011;38480;52.724;6.436;2023-03-16T02:43:50;14.20;;;4.20;;
52586;SDS011;38480;52.724;6.436;2023-03-16T02:46:18;9.20;;;4.47;;
52586;SDS011;38480;52.724;6.436;2023-03-16T02:51:30;9.87;;;4.13;;
52586;SDS011;38480;52.724;6.436;2023-03-16T02:53:56;9.47;;;4.07;;
52586;SDS011;38480;52.724;6.436;2023-03-16T02:56:22;7.97;;;4.03;;
52586;SDS011;38480;52.724;6.436;2023-03-16T02:58:48;14.40;;;6.07;;
52586;SDS011;38480;52.724;6.436;2023-03-16T03:01:14;8.43;;;3.97;;
52586;SDS011;38480;52.724;6.436;2023-03-16T03:03:40;10.00;;;5.30;;
52586;SDS011;38480;52.724;6.436;2023-03-16T03:06:07;10.37;;;4.37;;
52586;SDS011;38480;52.724;6.436;2023-03-16T03:08:33;9.67;;;4.77;;
52586;SDS011;38480;52.724;6.436;2023-03-16T03:10:59;11.90;;;4.97;;
52586;SDS011;38480;52.724;6.436;2023-03-16T03:13:25;8.60;;;4.20;;
52586;SDS011;38480;52.724;6.436;2023-03-16T03:15:51;10.87;;;4.00;;
52586;SDS011;38480;52.724;6.436;2023-03-16T03:18:17;9.27;;;4.47;;
52586;SDS011;38480;52.724;6.436;2023-03-16T03:20:43;11.13;;;4.47;;
52586;SDS011;38480;52.724;6.436;2023-03-16T03:23:09;10.37;;;4.27;;
52586;SDS011;38480;52.724;6.436;2023-03-16T03:25:35;12.00;;;4.10;;
52586;SDS011;38480;52.724;6.436;2023-03-16T03:28:02;8.33;;;4.67;;
52586;SDS011;38480;52.724;6.436;2023-03-16T03:30:29;10.70;;;4.33;;
52586;SDS011;38480;52.724;6.436;2023-03-16T03:32:56;5.93;;;3.43;;
52586;SDS011;38480;52.724;6.436;2023-03-16T03:35:22;9.73;;;4.07;;
52586;SDS011;38480;52.724;6.436;2023-03-16T03:37:48;7.67;;;4.37;;
52586;SDS011;38480;52.724;6.436;2023-03-16T03:40:15;8.87;;;4.30;;
52586;SDS011;38480;52.724;6.436;2023-03-16T03:42:41;9.17;;;4.60;;
52586;SDS011;38480;52.724;6.436;2023-03-16T03:45:08;8.33;;;4.07;;
52586;SDS011;38480;52.724;6.436;2023-03-16T03:47:36;6.97;;;3.87;;
52586;SDS011;38480;52.724;6.436;2023-03-16T03:50:03;9.27;;;3.67;;
52586;SDS011;38480;52.724;6.436;2023-03-16T03:52:29;6.83;;;3.63;;
52586;SDS011;38480;52.724;6.436;2023-03-16T03:54:54;9.97;;;4.00;;
52586;SDS011;38480;52.724;6.436;2023-03-16T03:57:20;10.30;;;3.53;;
52586;SDS011;38480;52.724;6.436;2023-03-16T03:59:46;5.77;;;3.23;;
52586;SDS011;38480;52.724;6.436;2023-03-16T04:02:12;6.90;;;3.57;;
52586;SDS011;38480;52.724;6.436;2023-03-16T04:04:39;8.77;;;3.50;;
52586;SDS011;38480;52.724;6.436;2023-03-16T04:07:05;5.57;;;3.23;;
52586;SDS011;38480;52.724;6.436;2023-03-16T04:09:31;8.83;;;4.00;;
52586;SDS011;38480;52.724;6.436;2023-03-16T04:11:58;6.20;;;3.63;;
52586;SDS011;38480;52.724;6.436;2023-03-16T04:14:24;9.77;;;3.80;;
52586;SDS011;38480;52.724;6.436;2023-03-16T04:16:50;7.20;;;3.40;;
52586;SDS011;38480;52.724;6.436;2023-03-16T04:19:16;7.00;;;3.23;;
52586;SDS011;38480;52.724;6.436;2023-03-16T04:21:42;9.33;;;3.77;;
52586;SDS011;38480;52.724;6.436;2023-03-16T04:24:08;10.07;;;4.47;;
52586;SDS011;38480;52.724;6.436;2023-03-16T04:26:34;6.67;;;3.10;;
52586;SDS011;38480;52.724;6.436;2023-03-16T04:29:00;7.80;;;3.73;;
52586;SDS011;38480;52.724;6.436;2023-03-16T04:31:27;9.10;;;3.83;;
52586;SDS011;38480;52.724;6.436;2023-03-16T04:33:53;7.47;;;3.10;;
52586;SDS011;38480;52.724;6.436;2023-03-16T04:36:19;8.17;;;3.67;;
52586;SDS011;38480;52.724;6.436;2023-03-16T04:38:48;8.40;;;3.57;;
52586;SDS011;38480;52.724;6.436;2023-03-16T04:41:15;8.43;;;3.13;;
52586;SDS011;38480;52.724;6.436;2023-03-16T04:43:41;10.33;;;3.73;;
52586;SDS011;38480;52.724;6.436;2023-03-16T04:46:07;6.67;;;3.20;;
52586;SDS011;38480;52.724;6.436;2023-03-16T04:48:34;8.17;;;3.53;;
52586;SDS011;38480;52.724;6.436;2023-03-16T04:51:00;6.77;;;4.00;;
52586;SDS011;38480;52.724;6.436;2023-03-16T04:53:27;6.53;;;3.60;;
52586;SDS011;38480;52.724;6.436;2023-03-16T04:55:53;12.70;;;3.80;;
52586;SDS011;38480;52.724;6.436;2023-03-16T04:58:19;6.83;;;3.37;;
52586;SDS011;38480;52.724;6.436;2023-03-16T05:00:46;8.23;;;4.23;;
52586;SDS011;38480;52.724;6.436;2023-03-16T05:03:13;10.60;;;3.93;;
52586;SDS011;38480;52.724;6.436;2023-03-16T05:05:39;7.63;;;3.23;;
52586;SDS011;38480;52.724;6.436;2023-03-16T05:08:06;9.10;;;3.77;;
52586;SDS011;38480;52.724;6.436;2023-03-16T05:10:32;9.27;;;4.77;;
52586;SDS011;38480;52.724;6.436;2023-03-16T05:12:59;11.70;;;3.70;;
52586;SDS011;38480;52.724;6.436;2023-03-16T05:15:25;9.47;;;3.93;;
52586;SDS011;38480;52.724;6.436;2023-03-16T05:17:51;11.47;;;4.57;;
52586;SDS011;38480;52.724;6.436;2023-03-16T05:20:19;8.80;;;3.53;;
52586;SDS011;38480;52.724;6.436;2023-03-16T05:22:45;8.20;;;3.60;;
52586;SDS011;38480;52.724;6.436;2023-03-16T05:25:12;9.73;;;3.80;;
52586;SDS011;38480;52.724;6.436;2023-03-16T05:27:46;7.40;;;3.53;;
52586;SDS011;38480;52.724;6.436;2023-03-16T05:30:13;8.97;;;4.07;;
52586;SDS011;38480;52.724;6.436;2023-03-16T05:32:42;8.23;;;4.30;;
52586;SDS011;38480;52.724;6.436;2023-03-16T05:35:09;8.80;;;4.13;;
52586;SDS011;38480;52.724;6.436;2023-03-16T05:37:39;8.70;;;4.30;;
52586;SDS011;38480;52.724;6.436;2023-03-16T05:40:05;11.67;;;4.00;;
52586;SDS011;38480;52.724;6.436;2023-03-16T05:42:38;11.52;;;3.85;;
52586;SDS011;38480;52.724;6.436;2023-03-16T05:45:04;9.27;;;3.90;;
52586;SDS011;38480;52.724;6.436;2023-03-16T05:47:30;5.97;;;3.77;;
52586;SDS011;38480;52.724;6.436;2023-03-16T05:49:56;9.97;;;4.03;;
52586;SDS011;38480;52.724;6.436;2023-03-16T05:52:22;7.43;;;4.13;;
52586;SDS011;38480;52.724;6.436;2023-03-16T05:54:49;13.03;;;4.47;;
52586;SDS011;38480;52.724;6.436;2023-03-16T05:57:15;7.83;;;3.90;;
52586;SDS011;38480;52.724;6.436;2023-03-16T05:59:41;8.17;;;4.30;;
52586;SDS011;38480;52.724;6.436;2023-03-16T06:02:07;6.70;;;3.73;;
52586;SDS011;38480;52.724;6.436;2023-03-16T06:04:34;11.37;;;4.30;;
52586;SDS011;38480;52.724;6.436;2023-03-16T06:07:00;7.90;;;3.83;;
52586;SDS011;38480;52.724;6.436;2023-03-16T06:09:26;8.03;;;4.40;;
52586;SDS011;38480;52.724;6.436;2023-03-16T06:11:52;9.60;;;4.50;;
52586;SDS011;38480;52.724;6.436;2023-03-16T06:14:18;7.33;;;4.47;;
52586;SDS011;38480;52.724;6.436;2023-03-16T06:16:45;7.67;;;4.30;;
52586;SDS011;38480;52.724;6.436;2023-03-16T06:19:11;9.37;;;3.67;;
52586;SDS011;38480;52.724;6.436;2023-03-16T06:21:37;9.00;;;4.27;;
52586;SDS011;38480;52.724;6.436;2023-03-16T06:24:03;5.40;;;3.57;;
52586;SDS011;38480;52.724;6.436;2023-03-16T06:26:31;7.67;;;4.23;;
52586;SDS011;38480;52.724;6.436;2023-03-16T06:28:57;8.07;;;4.40;;
52586;SDS011;38480;52.724;6.436;2023-03-16T06:31:23;9.97;;;3.90;;
52586;SDS011;38480;52.724;6.436;2023-03-16T06:33:49;10.30;;;4.10;;
52586;SDS011;38480;52.724;6.436;2023-03-16T06:36:15;7.50;;;3.47;;
52586;SDS011;38480;52.724;6.436;2023-03-16T06:38:41;6.70;;;3.73;;
52586;SDS011;38480;52.724;6.436;2023-03-16T06:41:07;9.83;;;3.70;;
52586;SDS011;38480;52.724;6.436;2023-03-16T06:43:33;7.00;;;4.03;;
52586;SDS011;38480;52.724;6.436;2023-03-16T06:45:59;7.70;;;4.03;;
52586;SDS011;38480;52.724;6.436;2023-03-16T06:48:25;6.17;;;3.40;;
52586;SDS011;38480;52.724;6.436;2023-03-16T06:50:51;7.20;;;3.30;;
52586;SDS011;38480;52.724;6.436;2023-03-16T06:53:17;8.13;;;4.37;;
52586;SDS011;38480;52.724;6.436;2023-03-16T06:55:43;7.77;;;4.20;;
52586;SDS011;38480;52.724;6.436;2023-03-16T06:58:09;7.20;;;3.57;;
52586;SDS011;38480;52.724;6.436;2023-03-16T07:00:35;6.30;;;4.03;;
52586;SDS011;38480;52.724;6.436;2023-03-16T07:03:02;6.47;;;3.87;;
52586;SDS011;38480;52.724;6.436;2023-03-16T07:05:28;7.17;;;3.50;;
52586;SDS011;38480;52.724;6.436;2023-03-16T07:07:54;7.70;;;4.03;;
52586;SDS011;38480;52.724;6.436;2023-03-16T07:10:20;5.87;;;3.20;;
52586;SDS011;38480;52.724;6.436;2023-03-16T07:12:46;7.07;;;3.57;;
52586;SDS011;38480;52.724;6.436;2023-03-16T07:15:12;7.63;;;3.90;;
52586;SDS011;38480;52.724;6.436;2023-03-16T07:17:38;6.67;;;3.97;;
52586;SDS011;38480;52.724;6.436;2023-03-16T07:20:04;6.73;;;3.90;;
52586;SDS011;38480;52.724;6.436;2023-03-16T07:22:34;7.33;;;4.17;;
52586;SDS011;38480;52.724;6.436;2023-03-16T07:25:00;7.47;;;3.17;;
52586;SDS011;38480;52.724;6.436;2023-03-16T07:27:26;7.40;;;3.67;;
52586;SDS011;38480;52.724;6.436;2023-03-16T07:29:53;7.93;;;3.70;;
52586;SDS011;38480;52.724;6.436;2023-03-16T07:32:20;7.80;;;3.37;;
52586;SDS011;38480;52.724;6.436;2023-03-16T07:34:46;8.50;;;4.17;;
52586;SDS011;38480;52.724;6.436;2023-03-16T07:37:12;7.57;;;4.00;;
52586;SDS011;38480;52.724;6.436;2023-03-16T07:39:40;8.73;;;3.60;;
52586;SDS011;38480;52.724;6.436;2023-03-16T07:42:06;6.10;;;3.40;;
52586;SDS011;38480;52.724;6.436;2023-03-16T07:44:32;5.63;;;3.53;;
52586;SDS011;38480;52.724;6.436;2023-03-16T07:46:58;10.80;;;3.67;;
52586;SDS011;38480;52.724;6.436;2023-03-16T07:49:24;6.87;;;3.53;;
52586;SDS011;38480;52.724;6.436;2023-03-16T07:51:50;7.83;;;3.60;;
52586;SDS011;38480;52.724;6.436;2023-03-16T07:54:16;8.57;;;3.97;;
52586;SDS011;38480;52.724;6.436;2023-03-16T07:56:42;9.03;;;4.27;;
52586;SDS011;38480;52.724;6.436;2023-03-16T07:59:08;7.00;;;3.30;;
52586;SDS011;38480;52.724;6.436;2023-03-16T08:01:34;7.90;;;4.23;;
52586;SDS011;38480;52.724;6.436;2023-03-16T08:04:01;8.53;;;3.70;;
52586;SDS011;38480;52.724;6.436;2023-03-16T08:06:27;8.40;;;3.97;;
52586;SDS011;38480;52.724;6.436;2023-03-16T08:08:53;6.80;;;4.10;;
52586;SDS011;38480;52.724;6.436;2023-03-16T08:11:19;9.60;;;4.53;;
52586;SDS011;38480;52.724;6.436;2023-03-16T08:13:49;7.27;;;4.73;;
52586;SDS011;38480;52.724;6.436;2023-03-16T08:16:21;8.40;;;5.07;;
52586;SDS011;38480;52.724;6.436;2023-03-16T08:18:48;9.60;;;5.13;;
52586;SDS011;38480;52.724;6.436;2023-03-16T08:21:16;7.13;;;4.30;;
52586;SDS011;38480;52.724;6.436;2023-03-16T08:23:42;9.67;;;4.63;;
52586;SDS011;38480;52.724;6.436;2023-03-16T08:26:13;9.70;;;5.07;;
52586;SDS011;38480;52.724;6.436;2023-03-16T08:28:39;8.07;;;5.20;;
52586;SDS011;38480;52.724;6.436;2023-03-16T08:31:06;8.70;;;5.83;;
52586;SDS011;38480;52.724;6.436;2023-03-16T08:33:32;14.63;;;5.80;;
52586;SDS011;38480;52.724;6.436;2023-03-16T08:36:00;13.87;;;5.33;;
52586;SDS011;38480;52.724;6.436;2023-03-16T08:38:26;12.10;;;6.03;;
52586;SDS011;38480;52.724;6.436;2023-03-16T08:40:52;8.80;;;5.53;;
52586;SDS011;38480;52.724;6.436;2023-03-16T08:43:18;11.77;;;5.43;;
52586;SDS011;38480;52.724;6.436;2023-03-16T08:45:44;11.03;;;5.47;;
52586;SDS011;38480;52.724;6.436;2023-03-16T08:48:10;8.70;;;5.73;;
52586;SDS011;38480;52.724;6.436;2023-03-16T08:50:39;13.03;;;6.43;;
52586;SDS011;38480;52.724;6.436;2023-03-16T08:53:05;8.93;;;5.43;;
52586;SDS011;38480;52.724;6.436;2023-03-16T08:55:31;11.33;;;5.80;;
52586;SDS011;38480;52.724;6.436;2023-03-16T08:57:58;10.57;;;6.17;;
52586;SDS011;38480;52.724;6.436;2023-03-16T09:00:24;14.87;;;7.17;;
52586;SDS011;38480;52.724;6.436;2023-03-16T09:02:50;11.53;;;6.03;;
52586;SDS011;38480;52.724;6.436;2023-03-16T09:05:16;12.30;;;6.00;;
52586;SDS011;38480;52.724;6.436;2023-03-16T09:07:42;14.13;;;6.90;;
52586;SDS011;38480;52.724;6.436;2023-03-16T09:10:09;11.43;;;6.47;;
52586;SDS011;38480;52.724;6.436;2023-03-16T09:12:40;13.63;;;6.23;;
52586;SDS011;38480;52.724;6.436;2023-03-16T09:15:06;11.97;;;5.70;;
52586;SDS011;38480;52.724;6.436;2023-03-16T09:17:34;10.07;;;5.73;;
52586;SDS011;38480;52.724;6.436;2023-03-16T09:20:00;15.00;;;7.53;;
52586;SDS011;38480;52.724;6.436;2023-03-16T09:22:26;10.53;;;6.60;;
52586;SDS011;38480;52.724;6.436;2023-03-16T09:24:53;13.03;;;7.17;;
52586;SDS011;38480;52.724;6.436;2023-03-16T09:27:19;14.03;;;6.93;;
52586;SDS011;38480;52.724;6.436;2023-03-16T09:29:46;14.17;;;7.00;;
52586;SDS011;38480;52.724;6.436;2023-03-16T09:32:13;15.27;;;7.73;;
52586;SDS011;38480;52.724;6.436;2023-03-16T09:34:39;14.33;;;7.73;;
52586;SDS011;38480;52.724;6.436;2023-03-16T09:37:05;11.87;;;6.63;;
52586;SDS011;38480;52.724;6.436;2023-03-16T09:39:31;14.87;;;7.87;;
52586;SDS011;38480;52.724;6.436;2023-03-16T09:41:58;18.83;;;8.17;;
52586;SDS011;38480;52.724;6.436;2023-03-16T09:44:38;14.40;;;7.73;;
52586;SDS011;38480;52.724;6.436;2023-03-16T09:47:08;12.67;;;7.47;;
52586;SDS011;38480;52.724;6.436;2023-03-16T09:49:36;14.77;;;7.90;;
52586;SDS011;38480;52.724;6.436;2023-03-16T09:55:09;13.33;;;7.33;;
52586;SDS011;38480;52.724;6.436;2023-03-16T09:57:28;15.33;;;8.33;;
52586;SDS011;38480;52.724;6.436;2023-03-16T09:59:59;13.90;;;7.37;;
52586;SDS011;38480;52.724;6.436;2023-03-16T10:05:01;18.03;;;9.50;;
52586;SDS011;38480;52.724;6.436;2023-03-16T10:10:29;15.00;;;7.23;;
52586;SDS011;38480;52.724;6.436;2023-03-16T10:12:57;18.53;;;7.80;;
52586;SDS011;38480;52.724;6.436;2023-03-16T10:15:25;15.67;;;7.67;;
52586;SDS011;38480;52.724;6.436;2023-03-16T10:20:19;19.70;;;8.27;;
52586;SDS011;38480;52.724;6.436;2023-03-16T10:22:46;16.57;;;6.73;;
52586;SDS011;38480;52.724;6.436;2023-03-16T10:27:44;12.77;;;7.50;;
52586;SDS011;38480;52.724;6.436;2023-03-16T10:32:42;12.17;;;7.30;;
52586;SDS011;38480;52.724;6.436;2023-03-16T10:35:26;12.17;;;6.47;;
52586;SDS011;38480;52.724;6.436;2023-03-16T10:37:53;13.00;;;7.10;;
52586;SDS011;38480;52.724;6.436;2023-03-16T10:40:21;14.63;;;6.67;;
52586;SDS011;38480;52.724;6.436;2023-03-16T10:42:47;15.13;;;7.00;;
52586;SDS011;38480;52.724;6.436;2023-03-16T10:45:24;14.03;;;7.07;;
52586;SDS011;38480;52.724;6.436;2023-03-16T10:47:52;14.43;;;7.60;;
52586;SDS011;38480;52.724;6.436;2023-03-16T10:50:22;11.93;;;6.87;;
52586;SDS011;38480;52.724;6.436;2023-03-16T10:52:49;13.17;;;6.67;;
52586;SDS011;38480;52.724;6.436;2023-03-16T10:55:25;11.40;;;6.13;;
52586;SDS011;38480;52.724;6.436;2023-03-16T10:57:56;11.60;;;6.60;;
52586;SDS011;38480;52.724;6.436;2023-03-16T11:00:26;12.63;;;6.10;;
52586;SDS011;38480;52.724;6.436;2023-03-16T11:02:54;9.13;;;5.30;;
52586;SDS011;38480;52.724;6.436;2023-03-16T11:05:31;11.53;;;6.10;;
52586;SDS011;38480;52.724;6.436;2023-03-16T11:10:30;11.30;;;6.17;;
52586;SDS011;38480;52.724;6.436;2023-03-16T11:13:01;12.57;;;5.70;;
52586;SDS011;38480;52.724;6.436;2023-03-16T11:15:32;11.57;;;6.17;;
52586;SDS011;38480;52.724;6.436;2023-03-16T11:18:00;13.18;;;5.57;;
52586;SDS011;38480;52.724;6.436;2023-03-16T11:20:27;9.40;;;4.87;;
52586;SDS011;38480;52.724;6.436;2023-03-16T11:22:56;11.97;;;5.20;;
52586;SDS011;38480;52.724;6.436;2023-03-16T11:25:25;8.47;;;4.73;;
52586;SDS011;38480;52.724;6.436;2023-03-16T11:27:57;6.27;;;4.13;;
52586;SDS011;38480;52.724;6.436;2023-03-16T11:32:55;8.87;;;4.03;;
52586;SDS011;38480;52.724;6.436;2023-03-16T11:38:24;11.57;;;4.77;;
52586;SDS011;38480;52.724;6.436;2023-03-16T11:41:00;7.73;;;4.73;;
52586;SDS011;38480;52.724;6.436;2023-03-16T11:53:59;7.50;;;3.93;;
52586;SDS011;38480;52.724;6.436;2023-03-16T12:06:49;6.47;;;3.57;;
52586;SDS011;38480;52.724;6.436;2023-03-16T12:14:51;6.57;;;3.23;;
52586;SDS011;38480;52.724;6.436;2023-03-16T12:17:21;5.43;;;3.07;;
52586;SDS011;38480;52.724;6.436;2023-03-16T12:19:49;7.63;;;3.60;;
52586;SDS011;38480;52.724;6.436;2023-03-16T12:22:19;7.40;;;3.43;;
52586;SDS011;38480;52.724;6.436;2023-03-16T12:24:47;5.00;;;3.17;;
52586;SDS011;38480;52.724;6.436;2023-03-16T12:27:14;8.40;;;3.40;;
52586;SDS011;38480;52.724;6.436;2023-03-16T12:29:43;6.83;;;2.70;;
52586;SDS011;38480;52.724;6.436;2023-03-16T12:32:18;8.40;;;3.00;;
52586;SDS011;38480;52.724;6.436;2023-03-16T12:34:54;7.65;;;3.13;;
52586;SDS011;38480;52.724;6.436;2023-03-16T12:37:35;4.87;;;3.10;;
52586;SDS011;38480;52.724;6.436;2023-03-16T12:45:03;8.03;;;3.63;;
52586;SDS011;38480;52.724;6.436;2023-03-16T12:47:32;6.27;;;3.13;;
52586;SDS011;38480;52.724;6.436;2023-03-16T12:50:12;5.47;;;3.13;;
52586;SDS011;38480;52.724;6.436;2023-03-16T12:52:47;8.30;;;3.60;;
52586;SDS011;38480;52.724;6.436;2023-03-16T12:57:39;6.23;;;3.03;;
52586;SDS011;38480;52.724;6.436;2023-03-16T13:00:06;11.57;;;3.43;;
52586;SDS011;38480;52.724;6.436;2023-03-16T13:02:34;5.37;;;2.87;;
52586;SDS011;38480;52.724;6.436;2023-03-16T13:07:27;5.80;;;3.37;;
52586;SDS011;38480;52.724;6.436;2023-03-16T13:09:56;5.73;;;3.07;;
52586;SDS011;38480;52.724;6.436;2023-03-16T13:12:25;8.70;;;3.33;;
52586;SDS011;38480;52.724;6.436;2023-03-16T13:14:51;4.60;;;2.90;;
52586;SDS011;38480;52.724;6.436;2023-03-16T13:17:30;6.73;;;2.90;;
52586;SDS011;38480;52.724;6.436;2023-03-16T13:20:22;6.70;;;2.90;;
52586;SDS011;38480;52.724;6.436;2023-03-16T13:22:50;5.60;;;2.77;;
52586;SDS011;38480;52.724;6.436;2023-03-16T13:25:34;8.60;;;2.93;;
52586;SDS011;38480;52.724;6.436;2023-03-16T13:28:04;5.90;;;2.30;;
52586;SDS011;38480;52.724;6.436;2023-03-16T13:30:32;7.57;;;2.97;;
52586;SDS011;38480;52.724;6.436;2023-03-16T13:33:00;5.27;;;2.70;;
52586;SDS011;38480;52.724;6.436;2023-03-16T13:35:31;5.80;;;2.63;;
52586;SDS011;38480;52.724;6.436;2023-03-16T13:38:03;4.33;;;2.53;;
52586;SDS011;38480;52.724;6.436;2023-03-16T13:40:29;7.10;;;2.67;;
52586;SDS011;38480;52.724;6.436;2023-03-16T13:42:56;6.07;;;3.33;;
52586;SDS011;38480;52.724;6.436;2023-03-16T13:45:32;5.87;;;2.67;;
52586;SDS011;38480;52.724;6.436;2023-03-16T13:47:59;7.70;;;2.60;;
52586;SDS011;38480;52.724;6.436;2023-03-16T13:50:26;5.70;;;2.90;;
52586;SDS011;38480;52.724;6.436;2023-03-16T13:52:56;5.73;;;2.60;;
52586;SDS011;38480;52.724;6.436;2023-03-16T13:55:25;5.37;;;2.30;;
52586;SDS011;38480;52.724;6.436;2023-03-16T13:57:52;4.67;;;2.50;;
52586;SDS011;38480;52.724;6.436;2023-03-16T14:00:19;4.93;;;2.70;;
52586;SDS011;38480;52.724;6.436;2023-03-16T14:02:47;8.57;;;2.83;;
52586;SDS011;38480;52.724;6.436;2023-03-16T14:05:16;4.23;;;2.57;;
52586;SDS011;38480;52.724;6.436;2023-03-16T14:07:47;5.97;;;3.20;;
52586;SDS011;38480;52.724;6.436;2023-03-16T14:10:14;4.37;;;2.57;;
52586;SDS011;38480;52.724;6.436;2023-03-16T14:12:54;5.87;;;2.97;;
52586;SDS011;38480;52.724;6.436;2023-03-16T14:15:23;6.33;;;3.03;;
52586;SDS011;38480;52.724;6.436;2023-03-16T14:17:50;5.93;;;3.17;;
52586;SDS011;38480;52.724;6.436;2023-03-16T14:20:20;8.60;;;2.93;;
52586;SDS011;38480;52.724;6.436;2023-03-16T14:22:49;6.47;;;2.90;;
52586;SDS011;38480;52.724;6.436;2023-03-16T14:25:18;4.87;;;3.10;;
52586;SDS011;38480;52.724;6.436;2023-03-16T14:27:46;4.70;;;2.60;;
52586;SDS011;38480;52.724;6.436;2023-03-16T14:32:39;7.27;;;2.93;;
52586;SDS011;38480;52.724;6.436;2023-03-16T14:35:12;6.00;;;2.87;;
52586;SDS011;38480;52.724;6.436;2023-03-16T14:37:39;5.07;;;2.73;;
52586;SDS011;38480;52.724;6.436;2023-03-16T14:40:28;5.30;;;2.77;;
52586;SDS011;38480;52.724;6.436;2023-03-16T14:42:53;5.20;;;3.00;;
52586;SDS011;38480;52.724;6.436;2023-03-16T14:45:20;4.37;;;2.70;;
52586;SDS011;38480;52.724;6.436;2023-03-16T14:47:47;6.10;;;2.57;;
52586;SDS011;38480;52.724;6.436;2023-03-16T14:50:17;6.57;;;2.70;;
52586;SDS011;38480;52.724;6.436;2023-03-16T14:52:46;6.03;;;2.87;;
52586;SDS011;38480;52.724;6.436;2023-03-16T14:55:15;4.50;;;2.80;;
52586;SDS011;38480;52.724;6.436;2023-03-16T14:57:43;6.47;;;3.03;;
52586;SDS011;38480;52.724;6.436;2023-03-16T15:00:10;5.23;;;2.50;;
52586;SDS011;38480;52.724;6.436;2023-03-16T15:02:37;5.70;;;2.80;;
52586;SDS011;38480;52.724;6.436;2023-03-16T15:05:05;5.80;;;2.63;;
52586;SDS011;38480;52.724;6.436;2023-03-16T15:07:38;8.23;;;2.90;;
52586;SDS011;38480;52.724;6.436;2023-03-16T15:10:06;4.33;;;2.90;;
52586;SDS011;38480;52.724;6.436;2023-03-16T15:12:34;6.73;;;2.93;;
52586;SDS011;38480;52.724;6.436;2023-03-16T15:15:04;5.73;;;3.30;;
52586;SDS011;38480;52.724;6.436;2023-03-16T15:17:41;6.57;;;3.07;;
52586;SDS011;38480;52.724;6.436;2023-03-16T15:20:18;8.20;;;3.10;;
52586;SDS011;38480;52.724;6.436;2023-03-16T15:22:45;8.27;;;3.10;;
52586;SDS011;38480;52.724;6.436;2023-03-16T15:27:50;7.93;;;3.00;;
52586;SDS011;38480;52.724;6.436;2023-03-16T15:30:18;5.23;;;2.80;;
52586;SDS011;38480;52.724;6.436;2023-03-16T15:32:44;6.20;;;2.70;;
52586;SDS011;38480;52.724;6.436;2023-03-16T15:35:10;5.60;;;2.67;;
52586;SDS011;38480;52.724;6.436;2023-03-16T15:37:36;8.50;;;3.67;;
52586;SDS011;38480;52.724;6.436;2023-03-16T15:40:14;6.70;;;2.90;;
52586;SDS011;38480;52.724;6.436;2023-03-16T15:42:40;4.23;;;2.37;;
52586;SDS011;38480;52.724;6.436;2023-03-16T15:45:10;8.53;;;2.93;;
52586;SDS011;38480;52.724;6.436;2023-03-16T15:47:37;5.93;;;2.63;;
52586;SDS011;38480;52.724;6.436;2023-03-16T15:50:05;4.73;;;2.40;;
52586;SDS011;38480;52.724;6.436;2023-03-16T15:52:33;5.50;;;2.73;;
52586;SDS011;38480;52.724;6.436;2023-03-16T15:55:00;7.93;;;2.87;;
52586;SDS011;38480;52.724;6.436;2023-03-16T15:57:31;7.80;;;3.10;;
52586;SDS011;38480;52.724;6.436;2023-03-16T15:59:57;7.53;;;2.80;;